Time;durP1;ratioP1;P1;durP2;ratioP2;P2;SDS_P1;SDS_P2;PMS_P1;PMS_P2;Temp;Humidity;BMP_temperature;BMP_pressure;BME280_temperature;BME280_humidity;BME280_pressure;Samples;Min_cycle;Max_cycle;Signal;HPM_P1;HPM_P2
2021/12/13 00:00:48;;;;;;;0.30;0.20;;;;;;;7.99;100.00;94984.59;5112225;28;20451;-51
2021/12/13 00:03:26;;;;;;;0.40;0.30;;;;;;;8.02;100.00;95002.56;5111830;28;20487;-51
2021/12/13 00:05:58;;;;;;;0.33;0.30;;;;;;;8.07;100.00;94999.94;5114406;28;20455;-51
2021/12/13 00:08:31;;;;;;;0.87;0.87;;;;;;;7.61;100.00;94959.44;5116152;28;20446;-51
2021/12/13 00:11:07;;;;;;;0.40;0.40;;;;;;;7.78;100.00;95004.06;5115378;28;20433;-51
2021/12/13 00:13:40;;;;;;;1.70;0.40;;;;;;;7.82;100.00;95010.41;5115743;28;20518;-51
2021/12/13 00:16:09;;;;;;;0.33;0.30;;;;;;;7.35;100.00;95010.47;5116108;28;20455;-51
2021/12/13 00:18:42;;;;;;;0.63;0.63;;;;;;;7.48;100.00;95007.38;5115704;28;20466;-51
2021/12/13 00:21:15;;;;;;;0.30;0.30;;;;;;;7.25;100.00;95008.56;5115781;28;20430;-51
2021/12/13 00:23:49;;;;;;;0.30;0.20;;;;;;;7.34;100.00;95004.38;5115921;28;20507;-51
2021/12/13 00:26:27;;;;;;;0.43;0.40;;;;;;;7.17;100.00;95000.34;5115844;28;20459;-51
2021/12/13 00:28:56;;;;;;;0.30;0.20;;;;;;;6.97;100.00;94985.22;5114970;28;20768;-51
2021/12/13 00:31:34;;;;;;;0.80;0.80;;;;;;;6.88;100.00;94982.25;5115259;28;20488;-51
2021/12/13 00:34:12;;;;;;;0.30;0.30;;;;;;;6.83;100.00;94990.13;5115748;27;20820;-51
2021/12/13 00:36:47;;;;;;;0.30;0.20;;;;;;;6.82;100.00;94985.13;5115395;28;20502;-51
2021/12/13 00:39:19;;;;;;;0.50;0.50;;;;;;;6.85;100.00;94993.31;5115174;28;20426;-51
2021/12/13 00:41:49;;;;;;;0.40;0.30;;;;;;;6.79;100.00;94998.78;5115226;28;20496;-51
2021/12/13 00:44:23;;;;;;;1.23;0.80;;;;;;;6.64;100.00;94996.03;5115188;28;20439;-51
2021/12/13 00:46:55;;;;;;;0.30;0.20;;;;;;;6.77;100.00;94993.00;5114795;28;20998;-51
2021/12/13 00:49:28;;;;;;;0.30;0.20;;;;;;;6.96;100.00;94994.16;5115185;28;20992;-51
2021/12/13 00:51:58;;;;;;;0.30;0.20;;;;;;;6.92;100.00;94990.44;5114817;28;20415;-51
2021/12/13 00:54:32;;;;;;;0.40;0.40;;;;;;;6.90;100.00;94993.34;5114818;28;20427;-51
2021/12/13 00:57:40;;;;;;;0.30;0.20;;;;;;;6.96;100.00;94988.88;5114927;28;20458;-51
2021/12/13 01:00:19;;;;;;;0.30;0.20;;;;;;;6.93;100.00;94989.41;5115098;28;20859;-51
2021/12/13 01:02:52;;;;;;;0.40;0.30;;;;;;;6.68;100.00;94920.78;5114823;28;20476;-51
2021/12/13 01:05:40;;;;;;;4.80;0.30;;;;;;;6.82;100.00;94943.78;5114833;28;20424;-51
2021/12/13 01:08:13;;;;;;;0.30;0.20;;;;;;;6.76;100.00;94950.03;5114740;28;20990;-51
2021/12/13 01:11:17;;;;;;;0.30;0.20;;;;;;;6.62;100.00;94980.50;5115009;27;20467;-51
2021/12/13 01:14:03;;;;;;;0.30;0.30;;;;;;;6.88;100.00;94974.34;5114630;28;20885;-51
2021/12/13 01:16:49;;;;;;;0.30;0.20;;;;;;;7.14;100.00;94970.03;5113531;28;20446;-51
2021/12/13 01:19:29;;;;;;;0.40;0.30;;;;;;;7.02;100.00;94969.44;5114139;28;20919;-51
2021/12/13 01:22:35;;;;;;;0.30;0.23;;;;;;;6.85;100.00;94968.81;5114033;27;20510;-51
2021/12/13 01:25:21;;;;;;;0.53;0.53;;;;;;;6.99;100.00;94964.66;5114380;28;20522;-51
2021/12/13 01:27:55;;;;;;;0.30;0.30;;;;;;;6.97;100.00;94972.84;5114321;28;20473;-51
2021/12/13 01:30:32;;;;;;;0.80;0.67;;;;;;;6.89;100.00;94973.31;5114618;28;20514;-51
2021/12/13 01:33:03;;;;;;;0.30;0.20;;;;;;;6.95;100.00;94968.88;5114764;28;20415;-51
2021/12/13 01:35:36;;;;;;;0.30;0.30;;;;;;;7.02;100.00;94969.44;5114525;28;20467;-51
2021/12/13 01:38:12;;;;;;;0.30;0.20;;;;;;;6.99;100.00;94965.47;5113202;28;20453;-51
2021/12/13 01:40:44;;;;;;;0.30;0.20;;;;;;;6.98;100.00;94963.09;5114196;28;20439;-51
2021/12/13 01:43:17;;;;;;;0.30;0.20;;;;;;;6.80;100.00;94945.88;5114380;28;20435;-51
2021/12/13 01:45:50;;;;;;;0.43;0.40;;;;;;;6.78;100.00;94962.97;5114088;28;20459;-51
2021/12/13 01:48:23;;;;;;;0.30;0.20;;;;;;;6.76;100.00;94970.31;5113906;28;20471;-51
2021/12/13 01:51:03;;;;;;;0.40;0.40;;;;;;;6.84;100.00;94968.00;5113903;28;20459;-51
2021/12/13 01:53:37;;;;;;;0.30;0.20;;;;;;;7.01;100.00;94967.84;5113815;28;21002;-51
2021/12/13 01:56:23;;;;;;;0.30;0.20;;;;;;;6.84;100.00;94962.75;5113988;28;20411;-51
2021/12/13 01:58:52;;;;;;;0.30;0.20;;;;;;;5.54;100.00;94758.13;5113733;28;20508;-51
2021/12/13 02:01:25;;;;;;;0.30;0.20;;;;;;;5.95;100.00;94848.66;5114142;28;20503;-51
2021/12/13 02:03:58;;;;;;;0.40;0.30;;;;;;;6.75;100.00;94959.00;5113677;28;20428;-51
2021/12/13 02:06:36;;;;;;;0.30;0.20;;;;;;;6.74;100.00;94954.78;5113099;28;20424;-51
2021/12/13 02:09:10;;;;;;;0.70;0.40;;;;;;;6.70;100.00;94923.94;5113111;28;20526;-51
2021/12/13 02:11:40;;;;;;;0.30;0.20;;;;;;;6.77;100.00;94945.56;5113615;28;20457;-51
2021/12/13 02:14:16;;;;;;;0.30;0.20;;;;;;;6.43;100.00;94946.91;5113277;28;21006;-51
2021/12/13 02:16:59;;;;;;;0.30;0.20;;;;;;;6.65;100.00;94950.25;5113515;28;20966;-51
2021/12/13 02:19:39;;;;;;;0.53;0.53;;;;;;;6.60;100.00;94940.47;5113596;28;20424;-51
2021/12/13 02:22:32;;;;;;;0.30;0.20;;;;;;;6.55;100.00;94942.28;5113475;28;20423;-51
2021/12/13 02:25:07;;;;;;;1.17;1.17;;;;;;;6.49;100.00;94938.81;5113149;28;20946;-51
2021/12/13 02:30:31;;;;;;;0.30;0.20;;;;;;;6.50;100.00;94939.63;5113239;28;20905;-51
2021/12/13 02:33:00;;;;;;;0.30;0.23;;;;;;;6.23;100.00;94935.19;5112841;28;21017;-51
2021/12/13 02:35:33;;;;;;;0.30;0.20;;;;;;;6.30;100.00;94933.13;5112523;27;20523;-51
2021/12/13 02:38:06;;;;;;;0.30;0.20;;;;;;;6.38;100.00;94932.69;5113030;28;20911;-51
2021/12/13 02:40:36;;;;;;;0.40;0.30;;;;;;;6.36;100.00;94929.50;5113282;28;20467;-51
2021/12/13 02:43:07;;;;;;;0.30;0.20;;;;;;;6.49;100.00;94927.47;5113045;28;21007;-51
2021/12/13 02:45:42;;;;;;;0.30;0.20;;;;;;;6.20;100.00;94934.88;5113162;28;20545;-51
2021/12/13 02:48:17;;;;;;;0.30;0.20;;;;;;;6.25;100.00;94933.09;5112709;28;21025;-51
2021/12/13 02:50:52;;;;;;;0.30;0.20;;;;;;;6.12;100.00;94930.88;5113187;28;20565;-51
2021/12/13 02:53:30;;;;;;;0.30;0.20;;;;;;;6.39;100.00;94929.00;5112945;28;20459;-51
2021/12/13 02:55:59;;;;;;;0.30;0.30;;;;;;;5.86;100.00;94871.22;5113009;28;20431;-51
2021/12/13 02:58:29;;;;;;;0.30;0.20;;;;;;;5.91;100.00;94930.97;5112610;28;20951;-51
2021/12/13 03:01:02;;;;;;;0.40;0.27;;;;;;;6.03;100.00;94942.91;5112942;28;20450;-51
2021/12/13 03:03:35;;;;;;;0.30;0.20;;;;;;;5.77;100.00;94935.78;5112403;28;20428;-52
2021/12/13 03:06:07;;;;;;;0.40;0.30;;;;;;;5.73;100.00;94932.88;5112937;28;20424;-51
2021/12/13 03:08:40;;;;;;;0.30;0.20;;;;;;;5.81;100.00;94941.34;5112195;28;20923;-52
2021/12/13 03:11:22;;;;;;;0.30;0.30;;;;;;;5.78;100.00;94937.38;5112240;28;20444;-51
2021/12/13 03:13:54;;;;;;;0.30;0.20;;;;;;;5.72;100.00;94947.06;5112009;28;20416;-51
2021/12/13 03:16:28;;;;;;;0.30;0.20;;;;;;;5.89;100.00;94939.13;5112425;28;20427;-52
2021/12/13 03:19:02;;;;;;;0.30;0.20;;;;;;;5.98;100.00;94932.34;5112511;28;20503;-52
2021/12/13 03:22:03;;;;;;;0.40;0.30;;;;;;;6.00;100.00;94940.78;5112184;28;21033;-51
2021/12/13 03:24:49;;;;;;;0.30;0.20;;;;;;;5.65;100.00;94943.03;5111584;28;20521;-51
2021/12/13 03:27:42;;;;;;;0.30;0.20;;;;;;;5.58;100.00;94950.31;5112033;28;20478;-51
2021/12/13 03:30:15;;;;;;;0.30;0.20;;;;;;;5.78;100.00;94942.63;5106675;28;20812;-51
2021/12/13 03:32:51;;;;;;;0.30;0.20;;;;;;;5.73;100.00;94950.47;5112146;28;20477;-52
2021/12/13 03:35:24;;;;;;;0.30;0.20;;;;;;;5.70;100.00;94940.44;5112084;28;20475;-52
2021/12/13 03:37:59;;;;;;;0.30;0.20;;;;;;;5.57;100.00;94954.78;5112539;28;20830;-52
2021/12/13 03:40:31;;;;;;;0.30;0.20;;;;;;;5.56;100.00;94955.03;5111518;28;20523;-52
2021/12/13 03:43:05;;;;;;;0.30;0.20;;;;;;;4.94;100.00;94871.31;5112405;28;20443;-52
2021/12/13 03:45:42;;;;;;;0.30;0.30;;;;;;;5.39;100.00;94951.69;5112271;28;20454;-52
2021/12/13 03:48:13;;;;;;;0.30;0.20;;;;;;;5.52;100.00;94952.09;5112011;28;20473;-52
2021/12/13 03:50:45;;;;;;;0.30;0.20;;;;;;;5.38;100.00;94955.34;5111840;28;20431;-52
2021/12/13 03:53:18;;;;;;;0.50;0.30;;;;;;;5.73;100.00;94958.38;5112069;28;20508;-52
2021/12/13 03:55:50;;;;;;;0.30;0.20;;;;;;;5.88;100.00;94953.28;5111895;28;20471;-51
2021/12/13 03:58:21;;;;;;;0.40;0.30;;;;;;;5.99;100.00;94957.63;5111649;28;20467;-52
2021/12/13 04:00:54;;;;;;;0.30;0.20;;;;;;;6.36;100.00;94960.28;5112107;28;20428;-51
2021/12/13 04:03:25;;;;;;;0.30;0.20;;;;;;;5.97;100.00;94954.41;5112242;28;20806;-52
2021/12/13 04:05:56;;;;;;;0.30;0.30;;;;;;;6.04;100.00;94956.88;5111914;28;20439;-51
2021/12/13 04:08:25;;;;;;;0.30;0.20;;;;;;;5.63;100.00;94956.44;5111657;28;20506;-52
2021/12/13 04:10:59;;;;;;;0.30;0.20;;;;;;;5.84;100.00;94954.00;5111169;28;20974;-52
2021/12/13 04:13:31;;;;;;;0.30;0.20;;;;;;;5.71;100.00;94956.00;5111873;28;20995;-52
2021/12/13 04:16:11;;;;;;;0.30;0.20;;;;;;;5.98;100.00;94958.66;5111543;28;20565;-52
2021/12/13 04:21:29;;;;;;;0.30;0.20;;;;;;;5.85;100.00;94958.25;5110935;28;20487;-52
2021/12/13 04:24:02;;;;;;;0.30;0.20;;;;;;;5.73;100.00;94964.44;5112045;28;20443;-52
2021/12/13 04:26:37;;;;;;;0.30;0.20;;;;;;;5.99;100.00;94965.50;5111755;28;20510;-52
2021/12/13 04:29:11;;;;;;;0.40;0.40;;;;;;;5.04;100.00;94881.94;5111870;28;20506;-52
2021/12/13 04:31:40;;;;;;;0.53;0.53;;;;;;;5.52;100.00;94978.38;5111634;28;20502;-52
2021/12/13 04:34:09;;;;;;;0.30;0.20;;;;;;;5.23;100.00;94937.59;5111222;28;20435;-52
2021/12/13 04:36:42;;;;;;;0.30;0.20;;;;;;;5.59;100.00;94988.72;5110932;28;20982;-52
2021/12/13 04:39:14;;;;;;;0.30;0.20;;;;;;;5.54;100.00;94981.56;5111747;28;20435;-52
2021/12/13 04:41:48;;;;;;;0.30;0.30;;;;;;;5.85;100.00;94984.53;5111890;28;20491;-52
2021/12/13 04:44:20;;;;;;;0.40;0.33;;;;;;;5.43;100.00;94902.84;5111827;28;20808;-52
2021/12/13 04:46:52;;;;;;;0.30;0.20;;;;;;;6.04;100.00;94981.34;5111453;28;20462;-52
2021/12/13 04:49:25;;;;;;;0.30;0.30;;;;;;;5.58;100.00;94984.50;5111689;28;20498;-52
2021/12/13 04:51:56;;;;;;;0.30;0.20;;;;;;;5.54;100.00;94989.44;5111963;28;20471;-52
2021/12/13 04:54:27;;;;;;;0.50;0.30;;;;;;;5.52;100.00;94988.09;5114935;28;20467;-52
2021/12/13 04:56:58;;;;;;;0.30;0.20;;;;;;;5.84;100.00;94985.56;5115008;28;20415;-52
2021/12/13 04:59:28;;;;;;;0.40;0.30;;;;;;;5.78;100.00;94996.03;5115342;28;20459;-52
2021/12/13 05:01:59;;;;;;;0.30;0.20;;;;;;;5.48;100.00;94947.59;5114431;28;20435;-52
2021/12/13 05:04:30;;;;;;;0.40;0.30;;;;;;;6.04;100.00;94994.50;5114954;28;20419;-52
2021/12/13 05:07:00;;;;;;;0.30;0.20;;;;;;;6.00;100.00;94947.88;5114622;28;20515;-52
2021/12/13 05:09:30;;;;;;;0.30;0.30;;;;;;;6.45;100.00;94992.22;5115032;28;20901;-52
2021/12/13 05:12:09;;;;;;;0.40;0.40;;;;;;;6.03;100.00;94999.97;5114688;28;20431;-52
2021/12/13 05:14:40;;;;;;;0.30;0.20;;;;;;;6.07;100.00;95011.63;5114499;28;20474;-52
2021/12/13 05:17:21;;;;;;;0.30;0.30;;;;;;;6.05;100.00;94997.88;5114763;28;21062;-52
2021/12/13 05:19:54;;;;;;;0.40;0.33;;;;;;;5.61;100.00;94921.72;5114448;28;20868;-53
2021/12/13 05:22:26;;;;;;;0.30;0.20;;;;;;;6.26;100.00;95010.22;5114622;28;20421;-53
2021/12/13 05:25:00;;;;;;;0.33;0.27;;;;;;;6.38;100.00;95014.28;5114745;28;20485;-54
2021/12/13 05:27:35;;;;;;;0.30;0.20;;;;;;;6.83;100.00;95026.22;5113391;28;20421;-54
2021/12/13 05:30:13;;;;;;;0.30;0.20;;;;;;;6.55;100.00;95026.53;5114336;28;20553;-54
2021/12/13 05:32:46;;;;;;;2.20;0.50;;;;;;;6.25;100.00;95030.47;5114158;28;20451;-54
2021/12/13 05:35:21;;;;;;;0.40;0.30;;;;;;;5.98;100.00;95044.66;5113365;28;20503;-54
2021/12/13 05:37:53;;;;;;;0.30;0.20;;;;;;;6.08;100.00;95037.66;5114073;28;20462;-54
2021/12/13 05:40:24;;;;;;;0.50;0.50;;;;;;;5.47;100.00;95056.38;5114063;28;20892;-54
2021/12/13 05:42:56;;;;;;;0.50;0.30;;;;;;;5.25;100.00;95050.28;5113759;27;20428;-54
2021/12/13 05:45:34;;;;;;;0.30;0.20;;;;;;;5.27;100.00;95066.59;5113889;28;20474;-54
2021/12/13 05:48:09;;;;;;;0.60;0.40;;;;;;;5.21;100.00;95064.97;5113976;28;20523;-54
2021/12/13 05:50:41;;;;;;;0.30;0.20;;;;;;;5.21;100.00;95065.75;5113811;28;20565;-54
2021/12/13 05:53:12;;;;;;;0.30;0.20;;;;;;;5.55;100.00;95066.47;5114207;28;20789;-54
2021/12/13 05:55:57;;;;;;;0.30;0.20;;;;;;;5.31;100.00;95067.72;5113831;28;20443;-54
2021/12/13 05:58:41;;;;;;;0.30;0.20;;;;;;;5.03;100.00;95076.53;5113957;28;20466;-54
2021/12/13 06:01:16;;;;;;;0.40;0.30;;;;;;;5.54;100.00;95083.28;5113513;28;20446;-54
2021/12/13 06:03:51;;;;;;;0.30;0.20;;;;;;;5.39;100.00;95077.84;5113275;28;20562;-54
2021/12/13 06:06:24;;;;;;;1.27;1.27;;;;;;;5.33;100.00;95086.69;5113236;28;20954;-54
2021/12/13 06:08:56;;;;;;;0.47;0.47;;;;;;;5.31;100.00;95091.38;5113425;28;20987;-54
2021/12/13 06:11:32;;;;;;;0.30;0.20;;;;;;;5.23;100.00;95089.16;5113784;28;20497;-54
2021/12/13 06:14:18;;;;;;;0.30;0.20;;;;;;;4.97;100.00;95094.03;5113257;28;20462;-54
2021/12/13 06:17:03;;;;;;;0.60;0.40;;;;;;;5.04;100.00;95102.53;5113629;28;20431;-54
2021/12/13 06:19:34;;;;;;;1.17;1.17;;;;;;;4.87;100.00;95083.38;5113026;28;20865;-54
2021/12/13 06:22:08;;;;;;;0.50;0.50;;;;;;;4.91;100.00;95105.47;5113768;28;20509;-54
2021/12/13 06:24:41;;;;;;;0.40;0.40;;;;;;;4.90;100.00;95100.47;5113169;27;20466;-54
2021/12/13 06:27:14;;;;;;;0.33;0.23;;;;;;;4.90;100.00;95109.16;5113533;28;20428;-54
2021/12/13 06:30:09;;;;;;;0.53;0.53;;;;;;;4.85;100.00;95106.47;5113063;28;21002;-54
2021/12/13 06:32:44;;;;;;;0.40;0.30;;;;;;;4.90;100.00;95114.41;5103732;28;20482;-54
2021/12/13 06:35:41;;;;;;;0.40;0.30;;;;;;;4.93;100.00;95113.13;5113589;28;20430;-53
2021/12/13 06:38:32;;;;;;;0.40;0.30;;;;;;;5.60;100.00;95100.69;5104394;28;20496;-53
2021/12/13 06:41:04;;;;;;;1.10;1.10;;;;;;;5.45;100.00;95111.81;5113015;27;20527;-53
2021/12/13 06:43:37;;;;;;;1.87;1.80;;;;;;;5.13;100.00;95116.09;5113187;28;20851;-53
2021/12/13 06:46:10;;;;;;;0.73;0.73;;;;;;;5.11;100.00;95115.50;5113075;28;20463;-53
2021/12/13 06:48:43;;;;;;;0.30;0.20;;;;;;;5.04;100.00;95120.94;5113090;28;20802;-53
2021/12/13 06:51:14;;;;;;;0.30;0.20;;;;;;;5.33;100.00;95120.84;5112459;28;20475;-53
2021/12/13 06:54:01;;;;;;;0.40;0.40;;;;;;;5.09;100.00;95110.50;5113003;28;20927;-53
2021/12/13 06:56:32;;;;;;;0.40;0.37;;;;;;;5.13;100.00;95121.34;5112244;28;20415;-53
2021/12/13 06:59:02;;;;;;;0.50;0.50;;;;;;;5.02;100.00;95123.00;5112776;28;21011;-53
2021/12/13 07:01:35;;;;;;;0.73;0.73;;;;;;;4.84;100.00;95120.59;5112836;28;20514;-53
2021/12/13 07:04:07;;;;;;;0.30;0.30;;;;;;;4.65;100.00;95135.00;5112717;28;20471;-53
2021/12/13 07:06:36;;;;;;;0.30;0.30;;;;;;;4.93;100.00;95129.66;5112599;28;20503;-53
2021/12/13 07:09:14;;;;;;;0.83;0.83;;;;;;;4.87;100.00;95135.09;5112902;28;20508;-53
2021/12/13 07:11:49;;;;;;;0.50;0.40;;;;;;;4.98;100.00;95124.50;5112610;28;20424;-53
2021/12/13 07:14:20;;;;;;;0.50;0.47;;;;;;;4.71;100.00;95123.53;5112014;28;20544;-53
2021/12/13 07:16:53;;;;;;;1.33;1.33;;;;;;;4.73;100.00;95131.19;5112481;28;20514;-53
2021/12/13 07:19:24;;;;;;;1.73;0.70;;;;;;;4.96;100.00;95141.53;5112873;28;20424;-53
2021/12/13 07:21:56;;;;;;;1.87;1.87;;;;;;;4.98;100.00;95144.72;5112644;28;20428;-53
2021/12/13 07:24:32;;;;;;;2.20;0.80;;;;;;;4.59;100.00;95101.00;5112171;28;20455;-53
2021/12/13 07:27:06;;;;;;;0.50;0.40;;;;;;;4.92;100.00;95148.31;5112363;28;20510;-54
2021/12/13 07:29:41;;;;;;;0.53;0.53;;;;;;;4.54;100.00;95079.94;5111754;28;20459;-53
2021/12/13 07:32:18;;;;;;;0.60;0.60;;;;;;;5.12;100.00;95148.63;5111090;28;20521;-53
2021/12/13 07:34:55;;;;;;;0.77;0.77;;;;;;;5.02;100.00;95144.00;5111706;28;20435;-53
2021/12/13 07:37:48;;;;;;;0.40;0.40;;;;;;;5.07;100.00;95151.97;5111612;28;20459;-53
2021/12/13 07:40:24;;;;;;;0.40;0.33;;;;;;;4.97;100.00;95153.63;5111895;28;20515;-53
2021/12/13 07:42:57;;;;;;;0.30;0.20;;;;;;;4.61;100.00;95112.88;5111964;28;20514;-53
2021/12/13 07:45:29;;;;;;;0.40;0.30;;;;;;;4.95;100.00;95158.34;5112126;28;20459;-53
2021/12/13 07:48:05;;;;;;;4.53;2.40;;;;;;;5.14;100.00;95165.75;5111603;28;20423;-53
2021/12/13 07:50:34;;;;;;;0.57;0.57;;;;;;;5.13;100.00;95150.22;5111467;28;20462;-53
2021/12/13 07:53:06;;;;;;;0.40;0.30;;;;;;;5.24;100.00;95166.94;5111944;28;20943;-54
2021/12/13 07:59:56;;;;;;;0.40;0.30;;;;;;;5.79;100.00;95165.13;5041355;28;20464;-54
2021/12/13 08:02:31;;;;;;;0.30;0.30;;;;;;;5.83;100.00;95166.22;5051311;28;20498;-54
2021/12/13 08:05:09;;;;;;;0.30;0.20;;;;;;;5.83;100.00;95171.47;5051293;28;20926;-54
2021/12/13 08:07:43;;;;;;;0.30;0.20;;;;;;;5.63;100.00;95173.84;5050567;28;20524;-54
2021/12/13 08:10:15;;;;;;;0.30;0.20;;;;;;;5.78;100.00;95177.47;5051261;28;20885;-53
2021/12/13 08:12:46;;;;;;;0.30;0.20;;;;;;;5.94;100.00;95181.13;5051046;28;20941;-54
2021/12/13 08:15:19;;;;;;;0.30;0.20;;;;;;;6.10;100.00;95184.72;5051369;28;20438;-53
2021/12/13 08:17:50;;;;;;;0.30;0.20;;;;;;;4.97;100.00;95057.28;5051440;28;20522;-54
2021/12/13 08:20:29;;;;;;;0.40;0.30;;;;;;;5.99;100.00;95185.66;5051244;28;20537;-54
2021/12/13 08:23:00;;;;;;;0.60;0.60;;;;;;;6.10;100.00;95180.28;5051226;28;20903;-54
2021/12/13 08:25:32;;;;;;;0.30;0.20;;;;;;;6.15;100.00;95174.28;5051195;28;20430;-54
2021/12/13 08:28:05;;;;;;;0.40;0.30;;;;;;;6.05;100.00;95192.56;5054209;28;20469;-53
2021/12/13 08:30:43;;;;;;;0.30;0.20;;;;;;;6.16;100.00;95189.03;5054465;28;20558;-54
2021/12/13 08:33:15;;;;;;;0.80;0.80;;;;;;;6.43;100.00;95187.25;5054474;28;20437;-54
2021/12/13 08:35:56;;;;;;;3.27;0.93;;;;;;;6.46;100.00;95183.31;5054632;28;20472;-54
2021/12/13 08:38:30;;;;;;;0.30;0.20;;;;;;;6.00;100.00;95185.41;5054889;28;20509;-54
2021/12/13 08:41:01;;;;;;;0.40;0.30;;;;;;;6.13;100.00;95179.00;5054855;28;20462;-54
2021/12/13 08:43:35;;;;;;;0.30;0.20;;;;;;;6.32;100.00;95182.94;5054758;28;20461;-54
2021/12/13 08:46:04;;;;;;;0.30;0.20;;;;;;;6.28;100.00;95185.25;5054455;28;20480;-54
2021/12/13 08:48:45;;;;;;;0.30;0.30;;;;;;;6.35;100.00;95180.56;5054763;28;20434;-54
2021/12/13 08:51:22;;;;;;;0.30;0.20;;;;;;;6.27;100.00;95188.13;5054468;28;20540;-53
2021/12/13 08:54:00;;;;;;;0.30;0.20;;;;;;;5.80;100.00;95187.75;5053634;28;20517;-54
2021/12/13 08:56:33;;;;;;;0.30;0.20;;;;;;;6.19;100.00;95183.28;5054407;28;20488;-54
2021/12/13 08:59:08;;;;;;;0.40;0.30;;;;;;;6.02;100.00;95180.69;5053718;28;20493;-54
2021/12/13 09:01:47;;;;;;;0.63;0.60;;;;;;;6.14;100.00;95175.34;5053971;28;20495;-54
2021/12/13 09:04:25;;;;;;;0.30;0.20;;;;;;;6.27;100.00;95182.88;5053883;28;20469;-54
2021/12/13 09:06:58;;;;;;;0.30;0.20;;;;;;;5.79;100.00;95144.09;5054071;28;20936;-54
2021/12/13 09:09:28;;;;;;;0.40;0.30;;;;;;;6.47;100.00;95183.09;5054255;28;20485;-54
2021/12/13 09:12:01;;;;;;;0.30;0.20;;;;;;;6.07;100.00;95177.34;5054038;28;21020;-54
2021/12/13 09:14:37;;;;;;;2.03;1.40;;;;;;;6.23;100.00;95179.91;5053122;28;20426;-55
2021/12/13 09:17:12;;;;;;;1.43;0.80;;;;;;;5.91;100.00;95157.16;5054042;28;21025;-54
2021/12/13 09:19:53;;;;;;;0.40;0.30;;;;;;;6.03;100.00;95169.16;5054241;28;20518;-54
2021/12/13 09:22:27;;;;;;;0.67;0.67;;;;;;;6.05;100.00;95127.59;5053779;28;20422;-55
2021/12/13 09:24:58;;;;;;;1.77;1.77;;;;;;;6.40;100.00;95161.41;5053817;28;20454;-55
2021/12/13 09:27:37;;;;;;;0.37;0.33;;;;;;;6.02;100.00;95148.34;5054057;28;20476;-55
2021/12/13 09:30:19;;;;;;;0.30;0.20;;;;;;;6.02;100.00;95087.84;5053873;28;20931;-54
2021/12/13 09:32:52;;;;;;;0.30;0.20;;;;;;;6.52;100.00;95151.56;5054001;28;20499;-54
2021/12/13 09:35:30;;;;;;;0.67;0.53;;;;;;;6.71;100.00;95152.78;5053861;28;20863;-54
2021/12/13 09:38:04;;;;;;;0.30;0.20;;;;;;;6.52;100.00;95150.75;5052611;28;20441;-55
2021/12/13 09:40:38;;;;;;;0.40;0.30;;;;;;;6.85;100.00;95150.56;5052993;28;20430;-54
2021/12/13 09:43:07;;;;;;;0.30;0.20;;;;;;;6.81;100.00;95146.81;5052395;28;20577;-54
2021/12/13 09:45:43;;;;;;;0.93;0.93;;;;;;;6.77;100.00;95146.53;5053165;28;20513;-54
2021/12/13 09:48:19;;;;;;;1.03;0.40;;;;;;;6.68;100.00;95144.63;5053507;28;20434;-54
2021/12/13 09:50:50;;;;;;;0.63;0.60;;;;;;;6.06;100.00;95021.34;5052704;28;20556;-55
2021/12/13 09:53:24;;;;;;;0.40;0.30;;;;;;;6.87;100.00;95140.56;5053579;28;20454;-54
2021/12/13 09:55:53;;;;;;;0.30;0.20;;;;;;;7.11;100.00;95136.53;5053021;28;20490;-54
2021/12/13 09:58:27;;;;;;;5.40;1.00;;;;;;;6.77;100.00;95136.00;5052984;28;20493;-55
2021/12/13 10:01:02;;;;;;;0.30;0.20;;;;;;;6.54;100.00;95140.78;5052797;28;20878;-54
2021/12/13 10:03:34;;;;;;;0.40;0.30;;;;;;;6.95;100.00;95134.84;5053113;28;20436;-54
2021/12/13 10:06:08;;;;;;;0.70;0.70;;;;;;;6.83;100.00;95148.16;5053363;28;20500;-54
2021/12/13 10:08:44;;;;;;;0.40;0.20;;;;;;;6.61;100.00;95144.00;5052192;28;20456;-54
2021/12/13 10:11:17;;;;;;;0.43;0.43;;;;;;;7.08;100.00;95144.19;5053023;28;20505;-54
2021/12/13 10:13:47;;;;;;;0.40;0.30;;;;;;;7.32;100.00;95125.13;5052609;28;20492;-55
2021/12/13 10:16:19;;;;;;;1.37;1.27;;;;;;;7.23;100.00;95150.38;5053142;28;20865;-54
2021/12/13 10:18:52;;;;;;;0.30;0.20;;;;;;;7.15;100.00;95142.94;5052748;28;20963;-54
2021/12/13 10:21:24;;;;;;;0.53;0.53;;;;;;;6.60;100.00;95143.22;5052573;28;20975;-54
2021/12/13 10:23:57;;;;;;;0.40;0.30;;;;;;;6.60;100.00;95140.59;5052764;28;20473;-54
2021/12/13 10:26:30;;;;;;;0.50;0.50;;;;;;;7.16;100.00;95138.44;5052230;28;20426;-54
2021/12/13 10:29:03;;;;;;;0.97;0.97;;;;;;;7.33;100.00;95133.81;5052724;28;20520;-54
2021/12/13 10:31:35;;;;;;;8.03;1.70;;;;;;;7.14;100.00;95141.31;5052509;28;20550;-54
2021/12/13 10:34:07;;;;;;;0.73;0.73;;;;;;;7.01;100.00;95136.47;5052501;28;20434;-54
2021/12/13 10:36:39;;;;;;;0.70;0.60;;;;;;;7.19;100.00;95141.34;5052726;28;20514;-54
2021/12/13 10:39:14;;;;;;;1.30;1.20;;;;;;;7.14;100.00;95143.16;5052028;28;20529;-54
2021/12/13 10:42:07;;;;;;;0.50;0.50;;;;;;;7.23;100.00;95133.75;5052282;28;20469;-54
2021/12/13 10:44:38;;;;;;;0.50;0.50;;;;;;;7.39;100.00;95132.81;5051973;28;20565;-54
2021/12/13 10:47:10;;;;;;;0.40;0.33;;;;;;;7.51;100.00;95136.84;5052287;28;20957;-54
2021/12/13 10:49:43;;;;;;;0.40;0.40;;;;;;;7.31;100.00;95112.22;5052487;28;20434;-54
2021/12/13 10:52:14;;;;;;;0.60;0.60;;;;;;;7.42;100.00;95122.56;5051665;28;21024;-54
2021/12/13 10:54:47;;;;;;;1.00;1.00;;;;;;;7.35;100.00;95126.44;5052139;28;20495;-54
2021/12/13 10:57:19;;;;;;;0.33;0.30;;;;;;;7.61;100.00;95134.25;5051723;28;20559;-54
2021/12/13 10:59:49;;;;;;;0.60;0.60;;;;;;;7.79;100.00;95134.91;5051933;28;20474;-54
2021/12/13 11:02:35;;;;;;;0.60;0.60;;;;;;;7.73;100.00;95125.38;5052056;28;20445;-54
2021/12/13 11:05:09;;;;;;;0.40;0.33;;;;;;;7.79;100.00;95127.00;5052049;28;20434;-54
2021/12/13 11:07:39;;;;;;;1.17;1.17;;;;;;;7.68;100.00;95126.16;5052244;28;20823;-54
2021/12/13 11:10:11;;;;;;;0.33;0.30;;;;;;;7.25;100.00;95131.66;5052425;28;20853;-54
2021/12/13 11:12:43;;;;;;;0.40;0.30;;;;;;;7.33;100.00;95123.28;5051901;28;21039;-54
2021/12/13 11:15:15;;;;;;;0.30;0.30;;;;;;;7.69;100.00;95127.72;5052084;28;20510;-54
2021/12/13 11:17:45;;;;;;;0.50;0.50;;;;;;;7.78;100.00;95125.41;5051586;28;20465;-54
2021/12/13 11:20:20;;;;;;;0.30;0.20;;;;;;;7.74;100.00;95132.25;5051575;28;20470;-54
2021/12/13 11:22:51;;;;;;;0.70;0.70;;;;;;;6.88;100.00;95118.47;5050508;28;20461;-54
2021/12/13 11:25:26;;;;;;;0.77;0.40;;;;;;;6.83;100.00;95086.81;5051901;28;20458;-55
2021/12/13 11:27:54;;;;;;;0.47;0.47;;;;;;;7.07;100.00;95134.66;5051430;28;20977;-53
2021/12/13 11:30:26;;;;;;;0.30;0.30;;;;;;;7.08;100.00;95131.00;5051253;28;20530;-54
2021/12/13 11:34:05;;;;;;;0.50;0.40;;;;;;;6.74;100.00;95109.38;5051514;28;20509;-54
2021/12/13 11:36:50;;;;;;;0.50;0.43;;;;;;;7.04;100.00;95130.69;4950896;29;20538;-54
2021/12/13 11:39:38;;;;;;;0.30;0.20;;;;;;;7.11;100.00;95133.91;4951106;29;20462;-54
2021/12/13 11:42:40;;;;;;;0.67;0.67;;;;;;;7.07;100.00;95139.94;5022564;28;20480;-54
2021/12/13 11:45:45;;;;;;;0.37;0.27;;;;;;;7.34;100.00;95124.84;5051500;28;20437;-52
2021/12/13 11:48:33;;;;;;;0.30;0.20;;;;;;;7.46;100.00;95117.56;5051836;28;20790;-54
2021/12/13 11:51:32;;;;;;;0.30;0.20;;;;;;;7.56;100.00;95126.31;5051298;28;20479;-52
2021/12/13 11:54:43;;;;;;;0.40;0.30;;;;;;;7.11;100.00;95131.28;5049126;28;21008;-54
2021/12/13 11:57:33;;;;;;;0.53;0.53;;;;;;;7.35;100.00;95119.34;5050415;28;20438;-52
2021/12/13 12:00:20;;;;;;;0.40;0.30;;;;;;;7.44;100.00;95133.63;5051127;28;20660;-53
2021/12/13 12:03:27;;;;;;;0.30;0.20;;;;;;;7.32;100.00;95126.94;5055366;28;20517;-53
2021/12/13 12:06:32;;;;;;;0.30;0.20;;;;;;;7.61;100.00;95126.34;5055654;28;20466;-53
2021/12/13 12:09:17;;;;;;;0.30;0.20;;;;;;;7.50;100.00;95130.00;5054969;28;20484;-53
2021/12/13 12:12:12;;;;;;;0.30;0.20;;;;;;;7.40;100.00;95121.22;5055385;28;20521;-53
2021/12/13 12:14:40;;;;;;;0.53;0.53;;;;;;;7.56;100.00;95126.31;5055082;28;20484;-53
2021/12/13 12:17:12;;;;;;;0.30;0.20;;;;;;;7.50;100.00;95127.34;5055465;28;20505;-53
2021/12/13 12:19:41;;;;;;;0.40;0.30;;;;;;;7.37;100.00;95125.16;5055356;28;20521;-53
2021/12/13 12:22:15;;;;;;;0.30;0.27;;;;;;;6.45;100.00;95014.09;5054700;28;20450;-54
2021/12/13 12:24:47;;;;;;;0.30;0.23;;;;;;;7.48;100.00;95131.28;5055040;28;20889;-53